createdAt,value
2023-02-28T00:02:17.859Z,72.38
2023-02-28T00:05:58.711Z,72.51
2023-02-28T00:09:31.513Z,72.47
2023-02-28T00:12:58.948Z,72.45
2023-02-28T00:16:36.452Z,72.46
2023-02-28T00:19:53.033Z,72.49
2023-02-28T00:23:25.188Z,72.52
2023-02-28T00:26:46.716Z,72.58
2023-02-28T00:30:34.531Z,72.54
2023-02-28T00:49:05.668Z,72.63
2023-02-28T00:52:54.628Z,72.75
2023-02-28T00:56:43.634Z,72.77
2023-02-28T00:59:44.726Z,72.81
2023-02-28T01:03:23.985Z,72.80
2023-02-28T01:06:31.436Z,72.70
2023-02-28T01:09:45.667Z,72.89
2023-02-28T01:13:24.350Z,72.74
2023-02-28T01:16:56.321Z,72.68
2023-02-28T01:20:46.919Z,72.70
2023-02-28T01:24:43.831Z,72.72
2023-02-28T01:28:31.587Z,72.80
2023-02-28T01:31:29.518Z,72.73
2023-02-28T01:35:04.430Z,72.78
2023-02-28T01:38:25.928Z,72.66
2023-02-28T01:42:15.111Z,72.68
2023-02-28T01:50:04.901Z,72.42
2023-02-28T01:53:40.438Z,72.51
2023-02-28T01:57:14.544Z,72.62
2023-02-28T02:00:15.980Z,72.63
2023-02-28T02:03:59.172Z,72.67
2023-02-28T02:07:33.068Z,72.68
2023-02-28T02:32:25.049Z,72.22
2023-02-28T02:35:57.609Z,72.31
2023-02-28T02:39:46.094Z,72.29
2023-02-28T02:43:10.613Z,72.23
2023-02-28T02:46:53.855Z,72.14
2023-02-28T02:50:06.108Z,71.93
2023-02-28T02:53:35.832Z,71.54
2023-02-28T02:56:56.257Z,71.52
2023-02-28T03:07:49.567Z,70.64
2023-02-28T03:11:24.604Z,70.70
2023-02-28T03:14:52.223Z,70.53
2023-02-28T03:18:31.520Z,70.20
2023-02-28T03:22:19.214Z,70.16
2023-02-28T03:25:47.786Z,70.30
2023-02-28T03:29:42.748Z,70.58
2023-02-28T03:33:27.698Z,70.69
2023-02-28T03:37:09.856Z,70.72
2023-02-28T03:40:41.110Z,70.51
2023-02-28T03:47:52.210Z,69.57
2023-02-28T04:02:44.456Z,70.34
2023-02-28T04:06:19.763Z,70.72
2023-02-28T04:09:51.883Z,71.00
2023-02-28T04:13:41.135Z,71.15
2023-02-28T04:17:21.255Z,71.33
2023-02-28T04:21:11.914Z,71.57
2023-02-28T04:43:06.070Z,72.31
2023-02-28T04:46:19.518Z,72.12
2023-02-28T04:49:26.787Z,71.90
2023-02-28T04:52:58.855Z,71.63
2023-02-28T04:56:19.450Z,71.35
2023-02-28T04:59:46.743Z,71.10
2023-02-28T05:03:17.307Z,70.81
2023-02-28T05:32:44.496Z,71.73
2023-02-28T05:40:24.387Z,72.35
2023-02-28T05:43:04.944Z,72.28
2023-02-28T05:46:19.884Z,72.71
2023-02-28T05:48:56.917Z,73.29
2023-02-28T05:52:19.515Z,73.36
2023-02-28T05:55:38.361Z,73.28
2023-02-28T05:58:48.629Z,74.07
2023-02-28T06:02:26.050Z,74.12
2023-02-28T06:06:21.011Z,75.57
2023-02-28T06:08:55.159Z,75.26
2023-02-28T06:12:27.081Z,75.26
2023-02-28T06:15:44.959Z,75.04
2023-02-28T06:19:09.348Z,75.07
2023-02-28T06:22:21.305Z,75.43
2023-02-28T06:25:35.216Z,75.36
2023-02-28T06:28:09.083Z,75.59
2023-02-28T06:31:30.054Z,76.00
2023-02-28T06:34:13.112Z,75.76
2023-02-28T06:37:16.232Z,76.02
2023-02-28T06:40:29.295Z,76.00
2023-02-28T06:43:58.088Z,75.96
2023-02-28T06:47:05.547Z,76.10
2023-02-28T06:50:07.856Z,75.98
2023-02-28T06:53:21.374Z,76.34
2023-02-28T06:57:10.363Z,76.44
2023-02-28T07:00:23.883Z,76.35
2023-02-28T07:03:48.638Z,76.42
2023-02-28T07:07:11.824Z,76.22
2023-02-28T07:10:20.369Z,76.52
2023-02-28T07:13:45.723Z,76.39
2023-02-28T07:17:24.849Z,76.21
2023-02-28T07:20:46.817Z,76.22
2023-02-28T07:23:35.120Z,76.12
2023-02-28T07:26:07.952Z,76.00
2023-02-28T07:29:19.813Z,75.92
2023-02-28T07:32:57.622Z,75.97
2023-02-28T07:36:41.676Z,75.82
2023-02-28T07:40:00.194Z,75.54
2023-02-28T08:14:11.763Z,68.41
2023-02-28T08:16:50.451Z,68.17
2023-02-28T08:20:05.338Z,67.72
2023-02-28T08:22:45.907Z,66.66
2023-02-28T08:26:19.167Z,66.05
2023-02-28T08:29:14.277Z,65.92
2023-02-28T08:32:31.617Z,65.97
2023-02-28T08:35:45.959Z,65.80
2023-02-28T08:38:19.741Z,65.68
2023-02-28T08:40:48.252Z,65.50
2023-02-28T08:43:32.196Z,65.35
2023-02-28T08:46:35.645Z,65.01
2023-02-28T08:49:20.508Z,64.78
2023-02-28T08:52:01.174Z,64.40
2023-02-28T08:55:19.305Z,64.30
2023-02-28T08:58:02.270Z,64.83
2023-02-28T09:00:42.985Z,64.62
2023-02-28T09:03:42.936Z,64.46
2023-02-28T09:06:43.996Z,64.55
2023-02-28T09:10:22.192Z,64.20
2023-02-28T09:13:30.682Z,63.16
2023-02-28T09:16:33.480Z,63.14
2023-02-28T09:19:23.352Z,63.12
2023-02-28T09:22:32.014Z,62.03
2023-02-28T09:25:57.502Z,61.62
2023-02-28T09:29:15.772Z,60.95
2023-02-28T09:31:44.707Z,60.73
2023-02-28T09:34:56.250Z,60.26
2023-02-28T09:37:32.425Z,60.49
2023-02-28T09:40:25.823Z,60.27
2023-02-28T09:42:59.881Z,60.11
2023-02-28T09:45:38.213Z,59.38
2023-02-28T09:48:46.744Z,59.32
2023-02-28T09:52:11.687Z,59.74
2023-02-28T09:55:06.377Z,59.99
2023-02-28T09:59:02.503Z,59.25
2023-02-28T10:02:27.748Z,59.29
2023-02-28T10:05:53.199Z,58.74
2023-02-28T10:09:36.784Z,58.38
2023-02-28T10:12:23.072Z,58.79
2023-02-28T10:15:35.486Z,58.48
2023-02-28T10:18:49.415Z,58.57
2023-02-28T10:22:23.297Z,58.62
2023-02-28T11:02:22.170Z,54.80
2023-02-28T11:05:03.528Z,54.43
2023-02-28T11:07:52.585Z,53.29
2023-02-28T11:11:13.052Z,53.04
2023-02-28T11:14:16.108Z,52.33
2023-02-28T11:17:28.891Z,51.98
2023-02-28T11:20:40.583Z,50.54
2023-02-28T11:23:57.129Z,50.58
2023-02-28T11:27:22.716Z,50.27
2023-02-28T11:30:41.598Z,48.38
2023-02-28T11:34:20.393Z,48.23
2023-02-28T11:37:35.972Z,48.12
2023-02-28T11:41:14.057Z,46.92
2023-02-28T11:44:17.804Z,47.22
2023-02-28T11:47:09.699Z,46.28
2023-02-28T11:50:18.600Z,45.21
2023-02-28T11:54:13.518Z,44.66
2023-02-28T11:57:16.161Z,43.81
2023-02-28T12:00:54.271Z,43.45
2023-02-28T12:04:14.892Z,41.49
2023-02-28T12:07:01.699Z,41.96
2023-02-28T12:10:26.658Z,40.28
2023-02-28T12:13:05.882Z,38.69
2023-02-28T12:15:57.339Z,40.53
2023-02-28T12:19:33.744Z,39.09
2023-02-28T12:23:30.031Z,38.48
2023-02-28T12:26:52.806Z,38.55
2023-02-28T12:30:21.798Z,38.38
2023-02-28T12:33:09.986Z,37.85
2023-02-28T12:36:09.232Z,36.94
2023-02-28T12:39:14.017Z,37.05
2023-02-28T12:42:30.445Z,36.69
2023-02-28T12:46:21.355Z,36.96
2023-02-28T12:49:12.333Z,37.26
2023-02-28T12:52:07.371Z,36.79
2023-02-28T12:55:07.004Z,36.87
2023-02-28T12:58:27.100Z,37.24
2023-02-28T13:01:48.012Z,37.08
2023-02-28T13:05:33.664Z,37.39
2023-02-28T13:08:46.994Z,37.20
2023-02-28T13:12:25.395Z,37.00
2023-02-28T13:15:30.574Z,37.43
2023-02-28T13:18:43.788Z,37.72
2023-02-28T13:21:44.920Z,37.25
2023-02-28T13:25:05.033Z,37.53
2023-02-28T13:28:05.122Z,37.92
2023-02-28T13:31:19.527Z,37.81
2023-02-28T13:34:55.255Z,37.60
2023-02-28T13:38:10.761Z,37.36
2023-02-28T13:40:58.990Z,37.36
2023-02-28T13:44:29.890Z,36.66
2023-02-28T13:47:29.445Z,37.85
2023-02-28T13:50:43.079Z,37.35
2023-02-28T13:54:15.837Z,37.64
2023-02-28T13:57:52.775Z,37.67
2023-02-28T14:01:26.486Z,36.95
2023-02-28T14:31:00.548Z,41.50
2023-02-28T14:34:12.601Z,42.13
2023-02-28T14:37:51.982Z,43.04
2023-02-28T14:40:54.941Z,43.80
2023-02-28T14:44:37.367Z,43.87
2023-02-28T14:47:49.677Z,43.78
2023-02-28T14:51:00.463Z,43.84
2023-02-28T14:54:34.746Z,44.37
2023-02-28T14:57:55.319Z,45.15
2023-02-28T15:00:48.304Z,45.78
2023-02-28T15:04:01.526Z,46.29
2023-02-28T15:07:30.389Z,46.56
2023-02-28T15:10:38.508Z,46.62
2023-02-28T15:13:59.900Z,47.28
2023-02-28T15:17:21.412Z,47.05
2023-02-28T15:20:50.847Z,46.90
2023-02-28T15:24:35.498Z,47.46
2023-02-28T15:27:46.181Z,47.67
2023-02-28T15:30:55.092Z,48.30
2023-02-28T15:34:33.672Z,48.92
2023-02-28T15:38:07.146Z,49.60
2023-02-28T15:42:02.667Z,49.26
2023-02-28T15:44:38.547Z,49.20
2023-02-28T15:47:28.088Z,49.69
2023-02-28T15:50:19.507Z,49.87
2023-02-28T15:52:51.413Z,50.01
2023-02-28T15:56:31.327Z,50.42
2023-02-28T15:59:43.011Z,50.82
2023-02-28T16:02:16.976Z,50.96
2023-02-28T16:05:29.010Z,51.39
2023-02-28T16:08:20.054Z,51.85
2023-02-28T16:11:31.944Z,51.95
2023-02-28T16:15:03.475Z,52.11
2023-02-28T16:18:35.642Z,52.42
2023-02-28T16:21:06.772Z,52.50
2023-02-28T16:24:55.985Z,53.17
2023-02-28T16:28:01.418Z,53.12
2023-02-28T16:31:26.231Z,53.48
2023-02-28T16:34:00.445Z,53.63
2023-02-28T16:37:29.720Z,54.11
2023-02-28T16:40:37.157Z,53.99
2023-02-28T16:44:29.596Z,53.92
2023-02-28T16:48:18.510Z,54.33
2023-02-28T16:51:56.288Z,54.50
2023-02-28T16:55:08.145Z,54.59
2023-02-28T16:58:43.596Z,54.98
2023-02-28T17:18:05.580Z,57.58
2023-02-28T17:21:56.118Z,56.95
2023-02-28T17:40:47.067Z,58.47
2023-02-28T17:44:20.827Z,58.00
2023-02-28T17:48:09.975Z,58.33
2023-02-28T17:51:35.350Z,58.46
2023-02-28T17:55:04.429Z,58.42
2023-02-28T17:58:44.707Z,58.90
2023-02-28T18:01:39.095Z,59.03
2023-02-28T18:05:17.286Z,59.39
2023-02-28T18:08:46.897Z,59.24
2023-02-28T18:12:25.126Z,59.21
2023-02-28T18:15:39.926Z,59.43
2023-02-28T18:19:20.400Z,59.68
2023-02-28T18:22:30.634Z,60.19
2023-02-28T18:25:45.245Z,60.90
2023-02-28T18:29:36.619Z,60.92
2023-02-28T18:48:02.326Z,62.65
2023-02-28T18:50:43.161Z,62.07
2023-02-28T18:53:32.923Z,61.89
2023-02-28T18:56:27.616Z,61.87
2023-02-28T18:59:18.154Z,62.60
2023-02-28T19:01:49.162Z,62.22
2023-02-28T19:04:40.018Z,62.60
2023-02-28T19:07:40.305Z,62.53
2023-02-28T19:10:25.006Z,62.58
2023-02-28T19:13:20.235Z,62.65
2023-02-28T19:15:56.961Z,62.37
2023-02-28T19:19:13.672Z,61.96
2023-02-28T19:22:24.274Z,62.34
2023-02-28T19:25:14.509Z,62.41
2023-02-28T19:27:47.759Z,62.92
2023-02-28T19:30:28.501Z,63.15
2023-02-28T19:33:44.845Z,62.92
2023-02-28T19:37:20.416Z,63.24
2023-02-28T19:40:05.044Z,63.49
2023-02-28T19:43:35.867Z,64.39
2023-02-28T19:46:54.057Z,64.88
2023-02-28T19:49:55.407Z,66.24
2023-02-28T19:53:12.187Z,67.38
2023-02-28T19:56:05.923Z,68.35
2023-02-28T19:58:56.810Z,68.68
2023-02-28T20:01:48.305Z,69.42
2023-02-28T20:05:04.382Z,69.34
2023-02-28T20:07:55.713Z,68.74
2023-02-28T20:10:49.862Z,69.04
2023-02-28T20:13:38.994Z,69.17
2023-02-28T20:16:47.464Z,69.19
2023-02-28T20:20:05.168Z,69.65
2023-02-28T20:23:30.788Z,70.00
2023-02-28T20:26:36.825Z,70.10
2023-02-28T20:29:36.483Z,71.01
2023-02-28T20:32:54.803Z,71.19
2023-02-28T20:36:42.527Z,70.66
2023-02-28T20:40:06.370Z,71.79
2023-02-28T20:43:45.446Z,72.58
2023-02-28T20:47:05.678Z,73.18
2023-02-28T20:50:46.968Z,73.44
2023-02-28T20:54:05.595Z,73.17
2023-02-28T20:57:47.324Z,73.31
2023-02-28T21:01:40.316Z,73.22
2023-02-28T21:05:27.115Z,73.25
2023-02-28T21:09:17.609Z,73.31
2023-02-28T21:24:29.205Z,74.99
2023-02-28T21:28:03.571Z,75.70
2023-02-28T21:31:33.932Z,75.89
2023-02-28T21:35:12.886Z,76.17
2023-02-28T21:38:53.638Z,75.95
2023-02-28T21:42:41.910Z,75.75
2023-02-28T21:46:17.373Z,75.27
2023-02-28T21:54:11.898Z,76.38
2023-02-28T21:57:59.403Z,76.92
2023-02-28T22:01:47.428Z,77.23
2023-02-28T22:05:28.448Z,77.33
2023-02-28T22:09:16.066Z,77.22
2023-02-28T22:12:55.659Z,77.54
2023-02-28T22:16:54.324Z,77.63
2023-02-28T22:20:23.086Z,78.39
2023-02-28T22:23:43.137Z,78.71
2023-02-28T22:27:20.478Z,78.88
2023-02-28T22:31:04.878Z,79.18
2023-02-28T22:34:47.003Z,80.13
2023-02-28T22:49:52.412Z,78.62
2023-02-28T22:53:40.048Z,77.51
2023-02-28T22:57:00.402Z,78.13
2023-02-28T23:00:48.614Z,77.78
2023-02-28T23:04:07.673Z,77.73
2023-02-28T23:07:48.221Z,78.23
2023-02-28T23:11:24.699Z,77.74
2023-02-28T23:14:42.861Z,77.37
2023-02-28T23:18:11.545Z,77.58
2023-02-28T23:21:59.817Z,77.82
2023-02-28T23:25:38.883Z,77.56
2023-02-28T23:29:21.731Z,77.36
2023-02-28T23:40:37.995Z,78.66
2023-02-28T23:44:26.984Z,79.12
2023-02-28T23:48:16.024Z,79.47
2023-02-28T23:51:50.941Z,79.64
2023-02-28T23:55:38.624Z,79.57
2023-02-28T23:59:09.839Z,78.94
